sensor_id;sensor_type;location;lat;lon;timestamp;noise_LAeq;noise_LA_min;noise_LA_max;noise_LA01;noise_LA95
68599;Laerm;18038;50.166;18.908;2022-09-01T00:00:09;34.57;33.10;40.51;;
68599;Laerm;18038;50.166;18.908;2022-09-01T00:03:19;34.48;33.30;36.02;;
68599;Laerm;18038;50.166;18.908;2022-09-01T00:06:32;34.45;33.25;35.67;;
68599;Laerm;18038;50.166;18.908;2022-09-01T00:09:39;34.56;33.25;39.74;;
68599;Laerm;18038;50.166;18.908;2022-09-01T00:12:45;35.78;33.43;46.21;;
68599;Laerm;18038;50.166;18.908;2022-09-01T00:15:53;34.85;33.30;43.51;;
68599;Laerm;18038;50.166;18.908;2022-09-01T00:19:00;35.15;33.19;43.12;;
68599;Laerm;18038;50.166;18.908;2022-09-01T00:22:07;35.23;33.40;43.70;;
68599;Laerm;18038;50.166;18.908;2022-09-01T00:25:17;34.82;33.21;43.01;;
68599;Laerm;18038;50.166;18.908;2022-09-01T00:28:28;34.99;33.22;42.81;;
68599;Laerm;18038;50.166;18.908;2022-09-01T00:31:39;34.45;33.15;36.18;;
68599;Laerm;18038;50.166;18.908;2022-09-01T00:34:45;36.40;33.42;46.71;;
68599;Laerm;18038;50.166;18.908;2022-09-01T00:37:51;34.47;33.27;35.90;;
68599;Laerm;18038;50.166;18.908;2022-09-01T00:41:00;34.45;33.20;35.61;;
68599;Laerm;18038;50.166;18.908;2022-09-01T00:44:10;34.42;33.20;36.98;;
68599;Laerm;18038;50.166;18.908;2022-09-01T00:47:19;35.29;33.21;47.27;;
68599;Laerm;18038;50.166;18.908;2022-09-01T00:50:25;34.64;33.21;37.47;;
68599;Laerm;18038;50.166;18.908;2022-09-01T00:53:32;34.45;33.19;35.91;;
68599;Laerm;18038;50.166;18.908;2022-09-01T00:56:42;34.53;33.39;38.60;;
68599;Laerm;18038;50.166;18.908;2022-09-01T01:00:00;34.45;33.26;35.70;;
68599;Laerm;18038;50.166;18.908;2022-09-01T01:03:10;34.53;33.25;37.29;;
68599;Laerm;18038;50.166;18.908;2022-09-01T01:06:18;34.98;33.19;44.29;;
68599;Laerm;18038;50.166;18.908;2022-09-01T01:09:37;34.49;33.19;36.01;;
68599;Laerm;18038;50.166;18.908;2022-09-01T01:12:45;34.59;33.43;36.16;;
68599;Laerm;18038;50.166;18.908;2022-09-01T01:15:55;35.13;33.32;45.46;;
68599;Laerm;18038;50.166;18.908;2022-09-01T01:19:06;34.50;33.28;35.88;;
68599;Laerm;18038;50.166;18.908;2022-09-01T01:22:54;34.73;33.31;44.33;;
68599;Laerm;18038;50.166;18.908;2022-09-01T01:26:09;34.76;33.23;40.96;;
68599;Laerm;18038;50.166;18.908;2022-09-01T01:29:17;34.47;33.31;35.56;;
68599;Laerm;18038;50.166;18.908;2022-09-01T01:32:24;34.46;33.29;35.88;;
68599;Laerm;18038;50.166;18.908;2022-09-01T01:35:32;34.50;33.25;35.84;;
68599;Laerm;18038;50.166;18.908;2022-09-01T01:38:39;35.43;33.14;49.03;;
68599;Laerm;18038;50.166;18.908;2022-09-01T01:41:49;34.47;33.10;35.84;;
68599;Laerm;18038;50.166;18.908;2022-09-01T01:44:59;34.41;33.22;35.43;;
68599;Laerm;18038;50.166;18.908;2022-09-01T01:48:06;34.42;33.07;36.46;;
68599;Laerm;18038;50.166;18.908;2022-09-01T01:51:17;35.14;33.32;46.80;;
68599;Laerm;18038;50.166;18.908;2022-09-01T01:54:28;34.83;33.27;42.66;;
68599;Laerm;18038;50.166;18.908;2022-09-01T01:57:37;35.03;33.20;44.01;;
68599;Laerm;18038;50.166;18.908;2022-09-01T02:00:54;34.46;33.07;36.28;;
68599;Laerm;18038;50.166;18.908;2022-09-01T02:04:02;35.11;33.20;46.94;;
68599;Laerm;18038;50.166;18.908;2022-09-01T02:07:10;35.34;33.43;45.78;;
68599;Laerm;18038;50.166;18.908;2022-09-01T02:10:17;34.98;33.20;41.90;;
68599;Laerm;18038;50.166;18.908;2022-09-01T02:13:26;35.56;33.26;44.70;;
68599;Laerm;18038;50.166;18.908;2022-09-01T02:16:35;34.49;33.17;35.79;;
68599;Laerm;18038;50.166;18.908;2022-09-01T02:19:41;34.45;33.42;35.59;;
68599;Laerm;18038;50.166;18.908;2022-09-01T02:22:48;35.91;33.45;48.24;;
68599;Laerm;18038;50.166;18.908;2022-09-01T02:25:58;34.66;33.05;44.30;;
68599;Laerm;18038;50.166;18.908;2022-09-01T02:29:22;34.83;33.18;42.93;;
68599;Laerm;18038;50.166;18.908;2022-09-01T02:32:30;34.52;33.40;39.28;;
68599;Laerm;18038;50.166;18.908;2022-09-01T02:35:36;35.87;33.35;48.74;;
68599;Laerm;18038;50.166;18.908;2022-09-01T02:38:44;35.98;33.59;45.45;;
68599;Laerm;18038;50.166;18.908;2022-09-01T02:41:58;35.17;33.45;42.82;;
68599;Laerm;18038;50.166;18.908;2022-09-01T02:45:21;34.83;33.50;42.52;;
68599;Laerm;18038;50.166;18.908;2022-09-01T02:48:35;35.39;33.46;43.64;;
68599;Laerm;18038;50.166;18.908;2022-09-01T02:51:44;35.96;33.49;47.27;;
68599;Laerm;18038;50.166;18.908;2022-09-01T02:54:50;36.09;33.50;43.93;;
68599;Laerm;18038;50.166;18.908;2022-09-01T02:57:58;36.21;33.63;45.67;;
68599;Laerm;18038;50.166;18.908;2022-09-01T03:01:14;36.85;33.55;48.71;;
68599;Laerm;18038;50.166;18.908;2022-09-01T03:04:24;36.08;33.25;44.30;;
68599;Laerm;18038;50.166;18.908;2022-09-01T03:07:31;36.43;33.41;49.38;;
68599;Laerm;18038;50.166;18.908;2022-09-01T03:10:40;36.48;33.50;45.16;;
68599;Laerm;18038;50.166;18.908;2022-09-01T03:13:46;36.37;33.45;45.40;;
68599;Laerm;18038;50.166;18.908;2022-09-01T03:16:58;36.72;33.41;46.87;;
68599;Laerm;18038;50.166;18.908;2022-09-01T03:20:15;35.55;33.46;45.67;;
68599;Laerm;18038;50.166;18.908;2022-09-01T03:23:24;37.85;33.79;47.74;;
68599;Laerm;18038;50.166;18.908;2022-09-01T03:26:30;36.88;33.58;44.41;;
68599;Laerm;18038;50.166;18.908;2022-09-01T03:29:36;37.28;33.61;45.78;;
68599;Laerm;18038;50.166;18.908;2022-09-01T03:32:46;37.44;33.56;46.29;;
68599;Laerm;18038;50.166;18.908;2022-09-01T03:35:53;37.30;33.61;49.58;;
68599;Laerm;18038;50.166;18.908;2022-09-01T03:39:00;36.81;33.69;43.37;;
68599;Laerm;18038;50.166;18.908;2022-09-01T03:42:12;37.85;33.60;45.29;;
68599;Laerm;18038;50.166;18.908;2022-09-01T03:45:27;38.70;33.96;49.82;;
68599;Laerm;18038;50.166;18.908;2022-09-01T03:48:41;37.65;34.14;45.32;;
68599;Laerm;18038;50.166;18.908;2022-09-01T03:51:47;38.06;34.08;47.72;;
68599;Laerm;18038;50.166;18.908;2022-09-01T03:54:57;38.02;33.75;46.16;;
68599;Laerm;18038;50.166;18.908;2022-09-01T03:58:09;41.56;33.62;56.10;;
68599;Laerm;18038;50.166;18.908;2022-09-01T04:01:16;39.88;33.68;55.37;;
68599;Laerm;18038;50.166;18.908;2022-09-01T04:04:25;37.33;33.79;46.30;;
68599;Laerm;18038;50.166;18.908;2022-09-01T04:07:33;39.02;34.02;52.26;;
68599;Laerm;18038;50.166;18.908;2022-09-01T04:10:49;36.91;33.92;43.88;;
68599;Laerm;18038;50.166;18.908;2022-09-01T04:14:23;38.00;33.83;48.80;;
68599;Laerm;18038;50.166;18.908;2022-09-01T04:17:32;37.79;33.87;45.36;;
68599;Laerm;18038;50.166;18.908;2022-09-01T04:20:56;37.85;33.84;45.98;;
68599;Laerm;18038;50.166;18.908;2022-09-01T04:24:03;38.17;33.87;51.92;;
68599;Laerm;18038;50.166;18.908;2022-09-01T04:27:15;38.36;34.22;48.60;;
68599;Laerm;18038;50.166;18.908;2022-09-01T04:30:25;38.60;34.19;45.70;;
68599;Laerm;18038;50.166;18.908;2022-09-01T04:33:37;38.21;34.04;51.81;;
68599;Laerm;18038;50.166;18.908;2022-09-01T04:36:49;37.99;33.94;45.87;;
68599;Laerm;18038;50.166;18.908;2022-09-01T04:39:58;38.13;33.86;47.35;;
68599;Laerm;18038;50.166;18.908;2022-09-01T04:43:06;39.39;34.33;49.92;;
68599;Laerm;18038;50.166;18.908;2022-09-01T04:46:13;38.46;34.37;46.57;;
68599;Laerm;18038;50.166;18.908;2022-09-01T04:49:20;40.01;33.79;53.54;;
68599;Laerm;18038;50.166;18.908;2022-09-01T04:52:31;40.03;34.21;55.97;;
68599;Laerm;18038;50.166;18.908;2022-09-01T04:55:41;38.74;33.98;45.46;;
68599;Laerm;18038;50.166;18.908;2022-09-01T04:58:53;38.88;33.94;47.27;;
68599;Laerm;18038;50.166;18.908;2022-09-01T05:01:59;38.80;33.99;46.92;;
68599;Laerm;18038;50.166;18.908;2022-09-01T05:05:09;39.19;33.88;51.16;;
68599;Laerm;18038;50.166;18.908;2022-09-01T05:08:21;37.83;34.11;45.36;;
68599;Laerm;18038;50.166;18.908;2022-09-01T05:11:30;38.77;33.80;56.33;;
68599;Laerm;18038;50.166;18.908;2022-09-01T05:14:45;39.24;34.13;52.22;;
68599;Laerm;18038;50.166;18.908;2022-09-01T05:17:53;37.88;34.32;48.63;;
68599;Laerm;18038;50.166;18.908;2022-09-01T05:21:06;37.75;34.14;45.93;;
68599;Laerm;18038;50.166;18.908;2022-09-01T05:24:20;38.82;34.23;46.88;;
68599;Laerm;18038;50.166;18.908;2022-09-01T05:27:36;40.88;34.44;57.44;;
68599;Laerm;18038;50.166;18.908;2022-09-01T05:30:44;39.56;34.40;47.12;;
68599;Laerm;18038;50.166;18.908;2022-09-01T05:33:56;39.39;34.46;47.42;;
68599;Laerm;18038;50.166;18.908;2022-09-01T05:37:06;39.51;34.71;46.39;;
68599;Laerm;18038;50.166;18.908;2022-09-01T05:40:18;39.94;34.83;50.47;;
68599;Laerm;18038;50.166;18.908;2022-09-01T05:43:25;42.42;35.75;51.30;;
68599;Laerm;18038;50.166;18.908;2022-09-01T05:46:35;42.96;36.19;56.59;;
68599;Laerm;18038;50.166;18.908;2022-09-01T05:49:42;48.22;34.50;75.32;;
68599;Laerm;18038;50.166;18.908;2022-09-01T05:52:48;41.08;34.96;57.90;;
68599;Laerm;18038;50.166;18.908;2022-09-01T05:55:57;40.25;34.30;46.47;;
68599;Laerm;18038;50.166;18.908;2022-09-01T05:59:08;40.58;34.34;48.50;;
68599;Laerm;18038;50.166;18.908;2022-09-01T06:02:34;42.96;36.85;55.90;;
68599;Laerm;18038;50.166;18.908;2022-09-01T06:05:41;40.81;36.17;53.04;;
68599;Laerm;18038;50.166;18.908;2022-09-01T06:08:47;41.33;36.36;51.59;;
68599;Laerm;18038;50.166;18.908;2022-09-01T06:11:56;41.81;34.37;52.63;;
68599;Laerm;18038;50.166;18.908;2022-09-01T06:15:05;45.14;37.85;63.03;;
68599;Laerm;18038;50.166;18.908;2022-09-01T06:18:22;40.54;36.57;52.06;;
68599;Laerm;18038;50.166;18.908;2022-09-01T06:21:32;43.19;34.65;70.64;;
68599;Laerm;18038;50.166;18.908;2022-09-01T06:24:39;41.59;34.35;62.90;;
68599;Laerm;18038;50.166;18.908;2022-09-01T06:27:49;39.24;34.17;56.62;;
68599;Laerm;18038;50.166;18.908;2022-09-01T06:30:56;39.21;33.95;57.05;;
68599;Laerm;18038;50.166;18.908;2022-09-01T06:34:09;39.67;33.96;54.80;;
68599;Laerm;18038;50.166;18.908;2022-09-01T06:37:20;39.74;34.06;54.72;;
68599;Laerm;18038;50.166;18.908;2022-09-01T06:40:29;40.51;33.97;54.81;;
68599;Laerm;18038;50.166;18.908;2022-09-01T06:43:38;38.15;33.84;44.80;;
68599;Laerm;18038;50.166;18.908;2022-09-01T06:46:46;39.52;33.89;61.46;;
68599;Laerm;18038;50.166;18.908;2022-09-01T06:49:53;39.12;33.78;52.43;;
68599;Laerm;18038;50.166;18.908;2022-09-01T06:53:01;38.60;34.03;47.99;;
68599;Laerm;18038;50.166;18.908;2022-09-01T06:56:33;40.76;34.71;54.86;;
68599;Laerm;18038;50.166;18.908;2022-09-01T06:59:49;40.51;35.50;52.33;;
68599;Laerm;18038;50.166;18.908;2022-09-01T07:02:57;38.81;33.75;49.08;;
68599;Laerm;18038;50.166;18.908;2022-09-01T07:06:33;37.49;33.31;44.86;;
68599;Laerm;18038;50.166;18.908;2022-09-01T07:10:26;38.36;33.72;51.79;;
68599;Laerm;18038;50.166;18.908;2022-09-01T07:13:44;38.38;33.15;49.17;;
68599;Laerm;18038;50.166;18.908;2022-09-01T07:17:13;38.82;33.50;59.05;;
68599;Laerm;18038;50.166;18.908;2022-09-01T07:20:27;38.63;33.60;50.81;;
68599;Laerm;18038;50.166;18.908;2022-09-01T07:24:05;40.72;34.60;59.01;;
68599;Laerm;18038;50.166;18.908;2022-09-01T07:27:49;38.70;33.83;50.82;;
68599;Laerm;18038;50.166;18.908;2022-09-01T07:30:59;39.58;33.70;57.07;;
68599;Laerm;18038;50.166;18.908;2022-09-01T07:34:29;40.78;33.91;61.01;;
68599;Laerm;18038;50.166;18.908;2022-09-01T07:37:55;42.84;33.61;57.95;;
68599;Laerm;18038;50.166;18.908;2022-09-01T07:41:23;39.24;33.85;53.51;;
68599;Laerm;18038;50.166;18.908;2022-09-01T07:45:12;38.76;33.97;48.51;;
68599;Laerm;18038;50.166;18.908;2022-09-01T07:48:37;38.80;33.82;51.84;;
68599;Laerm;18038;50.166;18.908;2022-09-01T07:52:08;39.38;33.80;59.52;;
68599;Laerm;18038;50.166;18.908;2022-09-01T07:55:17;38.59;33.70;55.15;;
68599;Laerm;18038;50.166;18.908;2022-09-01T07:58:27;38.63;33.89;52.05;;
68599;Laerm;18038;50.166;18.908;2022-09-01T08:01:37;38.64;33.69;46.46;;
68599;Laerm;18038;50.166;18.908;2022-09-01T08:04:44;39.69;34.13;56.73;;
68599;Laerm;18038;50.166;18.908;2022-09-01T08:07:55;44.18;33.75;67.53;;
68599;Laerm;18038;50.166;18.908;2022-09-01T08:11:07;40.58;33.98;65.25;;
68599;Laerm;18038;50.166;18.908;2022-09-01T08:14:13;40.66;34.12;61.23;;
68599;Laerm;18038;50.166;18.908;2022-09-01T08:17:20;38.80;34.15;50.22;;
68599;Laerm;18038;50.166;18.908;2022-09-01T08:20:47;39.12;34.13;51.98;;
68599;Laerm;18038;50.166;18.908;2022-09-01T08:24:17;42.89;34.79;65.42;;
68599;Laerm;18038;50.166;18.908;2022-09-01T08:27:23;41.61;34.03;59.70;;
68599;Laerm;18038;50.166;18.908;2022-09-01T08:30:31;40.56;34.08;62.08;;
68599;Laerm;18038;50.166;18.908;2022-09-01T08:33:40;39.77;34.08;57.54;;
68599;Laerm;18038;50.166;18.908;2022-09-01T08:36:46;41.59;33.90;59.93;;
68599;Laerm;18038;50.166;18.908;2022-09-01T08:39:58;45.06;34.30;68.93;;
68599;Laerm;18038;50.166;18.908;2022-09-01T08:43:19;38.43;33.82;56.04;;
68599;Laerm;18038;50.166;18.908;2022-09-01T08:46:37;38.87;33.67;53.16;;
68599;Laerm;18038;50.166;18.908;2022-09-01T08:49:48;38.79;34.02;50.84;;
68599;Laerm;18038;50.166;18.908;2022-09-01T08:53:27;40.91;34.75;60.31;;
68599;Laerm;18038;50.166;18.908;2022-09-01T08:56:39;43.35;34.17;62.45;;
68599;Laerm;18038;50.166;18.908;2022-09-01T08:59:47;41.82;34.09;61.18;;
68599;Laerm;18038;50.166;18.908;2022-09-01T09:03:20;40.28;34.52;56.49;;
68599;Laerm;18038;50.166;18.908;2022-09-01T09:06:56;47.46;34.22;68.45;;
68599;Laerm;18038;50.166;18.908;2022-09-01T09:10:17;45.93;34.02;71.03;;
68599;Laerm;18038;50.166;18.908;2022-09-01T09:13:42;40.32;34.06;61.35;;
68599;Laerm;18038;50.166;18.908;2022-09-01T09:16:54;40.95;34.23;59.49;;
68599;Laerm;18038;50.166;18.908;2022-09-01T09:20:02;45.83;34.30;65.46;;
68599;Laerm;18038;50.166;18.908;2022-09-01T09:23:23;46.93;33.91;67.74;;
68599;Laerm;18038;50.166;18.908;2022-09-01T09:26:30;41.35;34.34;67.67;;
68599;Laerm;18038;50.166;18.908;2022-09-01T09:29:56;47.39;34.42;68.81;;
68599;Laerm;18038;50.166;18.908;2022-09-01T09:33:36;39.98;33.84;59.05;;
68599;Laerm;18038;50.166;18.908;2022-09-01T09:37:21;38.78;34.17;47.42;;
68599;Laerm;18038;50.166;18.908;2022-09-01T09:40:28;38.86;34.38;49.31;;
68599;Laerm;18038;50.166;18.908;2022-09-01T09:43:59;38.23;33.93;49.64;;
68599;Laerm;18038;50.166;18.908;2022-09-01T09:47:41;38.69;34.12;47.89;;
68599;Laerm;18038;50.166;18.908;2022-09-01T09:51:18;39.00;34.45;54.26;;
68599;Laerm;18038;50.166;18.908;2022-09-01T09:54:32;38.34;34.08;47.45;;
68599;Laerm;18038;50.166;18.908;2022-09-01T09:57:44;38.90;33.62;49.01;;
68599;Laerm;18038;50.166;18.908;2022-09-01T10:01:08;38.78;33.98;48.81;;
68599;Laerm;18038;50.166;18.908;2022-09-01T10:04:38;43.74;36.09;61.43;;
68599;Laerm;18038;50.166;18.908;2022-09-01T10:07:44;40.98;33.91;56.54;;
68599;Laerm;18038;50.166;18.908;2022-09-01T10:10:50;38.64;33.40;60.35;;
68599;Laerm;18038;50.166;18.908;2022-09-01T10:14:00;41.39;34.04;61.04;;
68599;Laerm;18038;50.166;18.908;2022-09-01T10:17:19;39.45;33.83;54.18;;
68599;Laerm;18038;50.166;18.908;2022-09-01T10:20:50;40.63;33.45;58.58;;
68599;Laerm;18038;50.166;18.908;2022-09-01T10:23:59;37.20;33.56;46.77;;
68599;Laerm;18038;50.166;18.908;2022-09-01T10:27:29;38.87;33.70;47.54;;
68599;Laerm;18038;50.166;18.908;2022-09-01T10:30:40;40.78;33.87;63.45;;
68599;Laerm;18038;50.166;18.908;2022-09-01T10:33:53;38.92;33.80;54.27;;
68599;Laerm;18038;50.166;18.908;2022-09-01T10:37:05;40.34;33.86;59.21;;
68599;Laerm;18038;50.166;18.908;2022-09-01T10:40:38;39.95;33.49;61.15;;
68599;Laerm;18038;50.166;18.908;2022-09-01T10:43:51;39.34;33.69;58.79;;
68599;Laerm;18038;50.166;18.908;2022-09-01T10:47:25;40.67;33.56;62.85;;
68599;Laerm;18038;50.166;18.908;2022-09-01T10:50:32;44.35;33.59;67.57;;
68599;Laerm;18038;50.166;18.908;2022-09-01T10:53:42;38.11;33.83;46.65;;
68599;Laerm;18038;50.166;18.908;2022-09-01T10:56:51;38.71;33.93;47.68;;
68599;Laerm;18038;50.166;18.908;2022-09-01T11:00:45;38.88;34.19;56.67;;
68599;Laerm;18038;50.166;18.908;2022-09-01T11:04:14;38.47;33.60;49.23;;
68599;Laerm;18038;50.166;18.908;2022-09-01T11:07:34;38.76;33.72;45.81;;
68599;Laerm;18038;50.166;18.908;2022-09-01T11:11:25;37.88;33.15;50.49;;
68599;Laerm;18038;50.166;18.908;2022-09-01T11:14:50;38.60;33.01;48.95;;
68599;Laerm;18038;50.166;18.908;2022-09-01T11:17:58;39.12;33.43;55.44;;
68599;Laerm;18038;50.166;18.908;2022-09-01T11:21:15;38.97;33.89;51.01;;
68599;Laerm;18038;50.166;18.908;2022-09-01T11:24:50;41.98;34.14;61.33;;
68599;Laerm;18038;50.166;18.908;2022-09-01T11:28:45;38.98;33.80;52.41;;
68599;Laerm;18038;50.166;18.908;2022-09-01T11:31:51;42.08;34.00;59.08;;
68599;Laerm;18038;50.166;18.908;2022-09-01T11:35:04;38.22;33.89;52.69;;
68599;Laerm;18038;50.166;18.908;2022-09-01T11:38:15;38.94;33.30;50.79;;
68599;Laerm;18038;50.166;18.908;2022-09-01T11:41:28;39.22;33.83;48.37;;
68599;Laerm;18038;50.166;18.908;2022-09-01T11:44:49;38.52;33.61;49.61;;
68599;Laerm;18038;50.166;18.908;2022-09-01T11:48:02;39.03;33.71;48.57;;
68599;Laerm;18038;50.166;18.908;2022-09-01T11:51:12;40.29;34.13;57.81;;
68599;Laerm;18038;50.166;18.908;2022-09-01T11:54:28;38.03;33.80;45.45;;
68599;Laerm;18038;50.166;18.908;2022-09-01T11:57:45;39.12;34.19;50.89;;
68599;Laerm;18038;50.166;18.908;2022-09-01T12:00:57;38.59;33.88;45.99;;
68599;Laerm;18038;50.166;18.908;2022-09-01T12:04:21;39.00;34.04;52.09;;
68599;Laerm;18038;50.166;18.908;2022-09-01T12:07:39;41.45;34.28;60.27;;
68599;Laerm;18038;50.166;18.908;2022-09-01T12:11:05;39.26;34.40;56.38;;
68599;Laerm;18038;50.166;18.908;2022-09-01T12:14:20;40.94;34.48;53.81;;
68599;Laerm;18038;50.166;18.908;2022-09-01T12:17:29;39.90;34.17;50.01;;
68599;Laerm;18038;50.166;18.908;2022-09-01T12:20:36;38.97;34.11;46.08;;
68599;Laerm;18038;50.166;18.908;2022-09-01T12:23:42;40.01;34.40;51.37;;
68599;Laerm;18038;50.166;18.908;2022-09-01T12:26:53;39.97;33.44;56.45;;
68599;Laerm;18038;50.166;18.908;2022-09-01T12:30:00;38.17;33.73;48.53;;
68599;Laerm;18038;50.166;18.908;2022-09-01T12:33:11;38.95;34.28;46.25;;
68599;Laerm;18038;50.166;18.908;2022-09-01T12:36:29;39.32;34.31;50.32;;
68599;Laerm;18038;50.166;18.908;2022-09-01T12:39:38;40.34;34.69;54.58;;
68599;Laerm;18038;50.166;18.908;2022-09-01T12:42:53;44.96;33.95;68.40;;
68599;Laerm;18038;50.166;18.908;2022-09-01T12:45:58;41.16;34.20;62.88;;
68599;Laerm;18038;50.166;18.908;2022-09-01T12:49:21;38.76;33.91;46.44;;
68599;Laerm;18038;50.166;18.908;2022-09-01T12:52:32;39.09;33.71;49.39;;
68599;Laerm;18038;50.166;18.908;2022-09-01T12:56:03;40.03;33.94;57.25;;
68599;Laerm;18038;50.166;18.908;2022-09-01T12:59:20;40.17;33.72;54.07;;
68599;Laerm;18038;50.166;18.908;2022-09-01T13:02:45;38.98;33.68;49.63;;
68599;Laerm;18038;50.166;18.908;2022-09-01T13:05:57;39.17;34.50;51.99;;
68599;Laerm;18038;50.166;18.908;2022-09-01T13:09:03;40.39;34.47;51.07;;
68599;Laerm;18038;50.166;18.908;2022-09-01T13:12:20;46.71;34.35;66.96;;
68599;Laerm;18038;50.166;18.908;2022-09-01T13:15:41;43.14;34.36;57.94;;
68599;Laerm;18038;50.166;18.908;2022-09-01T13:18:49;43.55;34.97;66.57;;
68599;Laerm;18038;50.166;18.908;2022-09-01T13:22:17;40.85;33.88;63.55;;
68599;Laerm;18038;50.166;18.908;2022-09-01T13:25:26;40.15;34.60;52.38;;
68599;Laerm;18038;50.166;18.908;2022-09-01T13:28:32;39.06;33.60;50.00;;
68599;Laerm;18038;50.166;18.908;2022-09-01T13:31:42;39.41;33.80;55.15;;
68599;Laerm;18038;50.166;18.908;2022-09-01T13:35:09;43.11;34.43;61.75;;
68599;Laerm;18038;50.166;18.908;2022-09-01T13:38:18;41.74;33.85;64.61;;
68599;Laerm;18038;50.166;18.908;2022-09-01T13:41:24;45.14;34.37;67.84;;
68599;Laerm;18038;50.166;18.908;2022-09-01T13:44:29;40.59;34.26;58.95;;
68599;Laerm;18038;50.166;18.908;2022-09-01T13:47:37;38.98;33.49;49.59;;
68599;Laerm;18038;50.166;18.908;2022-09-01T13:51:05;39.05;33.68;46.64;;
68599;Laerm;18038;50.166;18.908;2022-09-01T13:54:20;39.80;34.25;52.50;;
68599;Laerm;18038;50.166;18.908;2022-09-01T13:57:31;38.96;33.53;48.83;;
68599;Laerm;18038;50.166;18.908;2022-09-01T14:00:41;38.92;33.38;55.27;;
68599;Laerm;18038;50.166;18.908;2022-09-01T14:03:48;38.63;34.00;46.76;;
68599;Laerm;18038;50.166;18.908;2022-09-01T14:06:59;40.88;33.43;56.98;;
68599;Laerm;18038;50.166;18.908;2022-09-01T14:10:09;40.04;33.60;51.55;;
68599;Laerm;18038;50.166;18.908;2022-09-01T14:13:16;39.20;34.02;45.81;;
68599;Laerm;18038;50.166;18.908;2022-09-01T14:16:21;39.47;33.48;51.90;;
68599;Laerm;18038;50.166;18.908;2022-09-01T14:19:28;39.38;33.84;54.69;;
68599;Laerm;18038;50.166;18.908;2022-09-01T14:22:34;40.27;33.82;52.92;;
68599;Laerm;18038;50.166;18.908;2022-09-01T14:25:49;45.08;34.31;66.70;;
68599;Laerm;18038;50.166;18.908;2022-09-01T14:29:06;43.50;34.55;65.50;;
68599;Laerm;18038;50.166;18.908;2022-09-01T14:32:12;39.37;34.02;52.48;;
68599;Laerm;18038;50.166;18.908;2022-09-01T14:35:21;40.49;33.90;53.27;;
68599;Laerm;18038;50.166;18.908;2022-09-01T14:38:29;43.30;33.80;66.21;;
68599;Laerm;18038;50.166;18.908;2022-09-01T14:41:38;40.38;34.10;54.42;;
68599;Laerm;18038;50.166;18.908;2022-09-01T14:44:43;41.28;33.95;57.83;;
68599;Laerm;18038;50.166;18.908;2022-09-01T14:47:53;39.89;34.22;54.52;;
68599;Laerm;18038;50.166;18.908;2022-09-01T14:51:22;39.69;33.75;56.63;;
68599;Laerm;18038;50.166;18.908;2022-09-01T14:54:48;39.24;33.97;52.88;;
68599;Laerm;18038;50.166;18.908;2022-09-01T14:57:57;39.06;33.89;49.19;;
68599;Laerm;18038;50.166;18.908;2022-09-01T15:01:03;40.19;33.73;58.11;;
68599;Laerm;18038;50.166;18.908;2022-09-01T15:04:30;40.22;33.78;54.73;;
68599;Laerm;18038;50.166;18.908;2022-09-01T15:07:36;38.95;33.31;48.38;;
68599;Laerm;18038;50.166;18.908;2022-09-01T15:10:43;39.58;33.83;52.43;;
68599;Laerm;18038;50.166;18.908;2022-09-01T15:13:51;39.96;33.81;56.46;;
68599;Laerm;18038;50.166;18.908;2022-09-01T15:16:57;41.47;33.95;60.81;;
68599;Laerm;18038;50.166;18.908;2022-09-01T15:20:08;40.63;33.79;51.36;;
68599;Laerm;18038;50.166;18.908;2022-09-01T15:23:26;42.58;33.85;64.07;;
68599;Laerm;18038;50.166;18.908;2022-09-01T15:26:33;39.82;34.31;55.26;;
68599;Laerm;18038;50.166;18.908;2022-09-01T15:29:46;41.63;34.26;56.02;;
68599;Laerm;18038;50.166;18.908;2022-09-01T15:33:00;39.77;33.72;56.28;;
68599;Laerm;18038;50.166;18.908;2022-09-01T15:36:07;40.95;33.74;56.40;;
68599;Laerm;18038;50.166;18.908;2022-09-01T15:39:13;41.62;33.86;57.33;;
68599;Laerm;18038;50.166;18.908;2022-09-01T15:42:18;39.70;34.00;52.78;;
68599;Laerm;18038;50.166;18.908;2022-09-01T15:45:28;41.06;34.35;54.49;;
68599;Laerm;18038;50.166;18.908;2022-09-01T15:48:34;39.97;33.59;56.68;;
68599;Laerm;18038;50.166;18.908;2022-09-01T15:51:43;43.02;34.10;61.36;;
68599;Laerm;18038;50.166;18.908;2022-09-01T15:54:49;43.49;33.52;68.59;;
68599;Laerm;18038;50.166;18.908;2022-09-01T15:57:55;42.48;33.59;71.33;;
68599;Laerm;18038;50.166;18.908;2022-09-01T16:01:03;39.87;33.25;49.72;;
68599;Laerm;18038;50.166;18.908;2022-09-01T16:04:13;38.73;33.48;52.82;;
68599;Laerm;18038;50.166;18.908;2022-09-01T16:07:30;38.68;33.69;56.62;;
68599;Laerm;18038;50.166;18.908;2022-09-01T16:10:39;39.32;33.57;55.10;;
68599;Laerm;18038;50.166;18.908;2022-09-01T16:13:46;40.05;33.63;52.80;;
68599;Laerm;18038;50.166;18.908;2022-09-01T16:17:04;37.37;33.22;50.18;;
68599;Laerm;18038;50.166;18.908;2022-09-01T16:20:19;39.78;33.45;53.85;;
68599;Laerm;18038;50.166;18.908;2022-09-01T16:23:43;39.25;33.82;50.08;;
68599;Laerm;18038;50.166;18.908;2022-09-01T16:26:51;38.77;33.50;54.08;;
68599;Laerm;18038;50.166;18.908;2022-09-01T16:30:03;38.33;33.02;50.15;;
68599;Laerm;18038;50.166;18.908;2022-09-01T16:33:22;38.60;33.26;49.72;;
68599;Laerm;18038;50.166;18.908;2022-09-01T16:36:38;38.64;33.43;48.01;;
68599;Laerm;18038;50.166;18.908;2022-09-01T16:39:50;37.50;32.95;46.47;;
68599;Laerm;18038;50.166;18.908;2022-09-01T16:43:08;37.78;33.22;47.77;;
68599;Laerm;18038;50.166;18.908;2022-09-01T16:46:26;38.10;33.45;50.43;;
68599;Laerm;18038;50.166;18.908;2022-09-01T16:49:53;39.60;34.14;47.69;;
68599;Laerm;18038;50.166;18.908;2022-09-01T16:53:27;37.47;33.50;51.89;;
68599;Laerm;18038;50.166;18.908;2022-09-01T16:56:52;43.10;33.51;66.05;;
68599;Laerm;18038;50.166;18.908;2022-09-01T17:00:06;43.11;33.62;65.24;;
68599;Laerm;18038;50.166;18.908;2022-09-01T17:03:31;42.40;33.56;64.66;;
68599;Laerm;18038;50.166;18.908;2022-09-01T17:06:58;38.68;33.67;50.16;;
68599;Laerm;18038;50.166;18.908;2022-09-01T17:10:23;38.66;33.78;46.94;;
68599;Laerm;18038;50.166;18.908;2022-09-01T17:13:40;40.64;33.72;66.38;;
68599;Laerm;18038;50.166;18.908;2022-09-01T17:16:51;39.39;33.61;63.96;;
68599;Laerm;18038;50.166;18.908;2022-09-01T17:20:05;37.68;33.54;47.81;;
68599;Laerm;18038;50.166;18.908;2022-09-01T17:23:25;38.88;33.52;49.46;;
68599;Laerm;18038;50.166;18.908;2022-09-01T17:26:32;40.35;33.68;56.35;;
68599;Laerm;18038;50.166;18.908;2022-09-01T17:29:43;38.63;33.54;55.43;;
68599;Laerm;18038;50.166;18.908;2022-09-01T17:33:15;38.39;33.27;53.84;;
68599;Laerm;18038;50.166;18.908;2022-09-01T17:36:38;37.96;33.60;51.41;;
68599;Laerm;18038;50.166;18.908;2022-09-01T17:40:08;38.13;33.25;49.69;;
68599;Laerm;18038;50.166;18.908;2022-09-01T17:43:33;37.69;33.51;62.80;;
68599;Laerm;18038;50.166;18.908;2022-09-01T17:47:04;37.36;33.33;43.82;;
68599;Laerm;18038;50.166;18.908;2022-09-01T17:50:37;38.57;33.38;52.33;;